Maastricht Aachen Airport

EHBK · Limburg, 荷兰

罗盘
风向 的 风向 320° Maastricht Aachen Airport 3/21
风: 4 kt, 2 beaufort

1 kt

4 kt
改变
0 1.000 2.000 3.000 4.000 5.000
SCT 100 ft
BKN 200 ft
METAR EBLG 060950Z 32004KT 1800 BR SCT001 BKN002 03/02 Q1020 BECMG 3000 BR BKN005

METAR Maastricht Aachen Airport - EHBK/MST

Maastricht Aachen Airport是,荷兰中的中型机场。 该机场有一条跑道: 3/21. 该领域的国际民航组织标志是EHBK 它的国际航空运输协会代码是MST.

这份报告是针对2022年12月6日 10:50, 当地时间在列日机场进行的。

机场观察

风向为320°,速度为4 kt。

可见度为1,8 km。

有疏云,零星散落的云朵在100 ft的高度 和 碎云在200 ft的高度。 破损或更高的上限为200 ft。

当前天气为薄雾。 温度为3 °C,阵风为-1 °C。 露点为2 °C,相对湿度为93%。 海平面上的气压为1020 hPa (QNH)。

发展趋势

  • 变得

    可变方向的风很小或没有。 可见性变为3 km。 重大天气:薄雾。 碎云在500 ft的高度.

白天

今天,太阳从08:23升起,在16:31降落。 这适用于Maastricht Aachen Airport,世界夏令时可能有所不同。 当地时间与世界标准时间之间的时差为+1 小时。 当前,没有夏令时有效。

公司介绍

我们没有关于这个机场的公司信息。

体会

到Vliegles.nl去找飞行课程,跳伞和其他飞行体验。 浏览页面,了解Maastricht Aachen Airport附近所有可用的活动。 你也可以使用搜索功能来寻找你所在地附近的特定飞行课程、跳伞或其他飞行体验。

跑道

Id 标题 侧风 逆风 侧风 %
3/21 033°-213° 4 kt 1 kt 96 %

逆风成分最大的方向会被突出显示,并用于横风计算。 这并不一定意味着这个方向在使用。

乌云

100 ft SCT 疏云,零星散落的云朵
200 ft BKN 碎云
500 ft BKN 变得 碎云

温度 & 天气

天气 薄雾
温度 3 °C
露点 2 °C
相对湿度 93%
风寒 -1 °C
Kp-index 0 (0-9)

白天

日出
08:23
中午
12:29
日落
16:34 (5:10)

小工具

你想在你的网站上有一个关于Maastricht Aachen Airport的当前航空天气(METAR)的小部件吗?

显示HTML代码

我们和第三方通过cookies跟踪您在我们网站上的互联网行为。如果你继续,我们认为你同意我们的饼干政策